Time;durP1;ratioP1;P1;durP2;ratioP2;P2;SDS_P1;SDS_P2;PMS_P1;PMS_P2;Temp;Humidity;BMP_temperature;BMP_pressure;BME280_temperature;BME280_humidity;BME280_pressure;Samples;Min_cycle;Max_cycle;Signal;HPM_P1;HPM_P2
2021/09/20 00:01:07;;;;;;;6.20;5.70;;;;;;;13.42;72.24;101823.94;4992623;28;20030;-76
2021/09/20 00:03:32;;;;;;;6.28;5.22;;;;;;;13.46;71.97;101825.53;5022164;28;20046;-77
2021/09/20 00:05:58;;;;;;;6.38;5.50;;;;;;;13.65;71.20;101816.97;5027237;28;20051;-77
2021/09/20 00:08:23;;;;;;;5.85;5.35;;;;;;;13.47;71.83;101821.16;5007687;28;20362;-76
2021/09/20 00:10:50;;;;;;;6.18;5.45;;;;;;;13.41;71.94;101822.25;5011133;28;20026;-76
2021/09/20 00:13:16;;;;;;;6.03;5.47;;;;;;;13.33;71.91;101819.88;5025038;28;20148;-76
2021/09/20 00:15:41;;;;;;;5.78;5.15;;;;;;;13.43;71.23;101816.00;4991218;28;20029;-76
2021/09/20 00:18:07;;;;;;;5.20;4.80;;;;;;;13.51;71.61;101822.75;5018981;28;20415;-76
2021/09/20 00:20:32;;;;;;;5.63;5.13;;;;;;;13.42;71.14;101821.31;5026592;28;20045;-77
2021/09/20 00:22:58;;;;;;;5.03;4.47;;;;;;;13.51;70.79;101815.69;5007094;28;20044;-77
2021/09/20 00:25:23;;;;;;;5.68;4.40;;;;;;;13.46;70.69;101822.06;4975261;28;20026;-76
2021/09/20 00:27:49;;;;;;;7.13;4.57;;;;;;;13.39;70.66;101824.06;4997864;28;20523;-77
2021/09/20 00:30:14;;;;;;;4.80;4.40;;;;;;;13.55;70.88;101829.59;5010757;28;20043;-76
2021/09/20 00:32:39;;;;;;;5.32;4.60;;;;;;;13.42;70.41;101832.72;5017210;28;20036;-77
2021/09/20 00:35:06;;;;;;;4.88;4.55;;;;;;;13.33;71.26;101825.13;5043041;28;20045;-76
2021/09/20 00:37:31;;;;;;;5.10;4.70;;;;;;;13.23;71.53;101821.94;5006858;28;20070;-77
2021/09/20 00:39:57;;;;;;;8.82;4.40;;;;;;;13.39;70.90;101829.34;4991164;28;20214;-78
2021/09/20 00:42:22;;;;;;;5.32;4.63;;;;;;;13.32;71.80;101835.72;4991055;28;20029;-76
2021/09/20 00:44:48;;;;;;;5.05;4.57;;;;;;;13.25;71.84;101835.06;4998034;28;20036;-76
2021/09/20 00:47:13;;;;;;;4.53;3.95;;;;;;;13.29;71.83;101835.81;5007069;28;20037;-77
2021/09/20 00:49:39;;;;;;;5.13;4.63;;;;;;;13.21;72.02;101836.09;4991035;28;20026;-76
2021/09/20 00:52:04;;;;;;;4.75;4.40;;;;;;;13.10;72.55;101830.31;5026983;28;20309;-76
2021/09/20 00:54:30;;;;;;;5.28;4.88;;;;;;;13.24;71.93;101836.84;5044306;28;20030;-77
2021/09/20 00:56:56;;;;;;;5.20;4.70;;;;;;;13.12;71.73;101839.03;5006760;28;20025;-76
2021/09/20 00:59:21;;;;;;;5.28;4.88;;;;;;;13.18;71.84;101833.56;5026035;28;20017;-77
2021/09/20 01:01:47;;;;;;;5.07;4.68;;;;;;;13.13;71.87;101838.13;5014442;28;20054;-76
2021/09/20 01:04:12;;;;;;;5.20;4.80;;;;;;;13.07;71.78;101839.19;4989354;28;20022;-77
2021/09/20 01:06:38;;;;;;;4.97;4.47;;;;;;;13.11;71.89;101839.94;5026330;28;20029;-76
2021/09/20 01:09:03;;;;;;;5.43;4.70;;;;;;;13.20;71.69;101837.84;5022419;28;20075;-77
2021/09/20 01:11:29;;;;;;;5.22;4.72;;;;;;;13.12;72.09;101834.63;5010011;28;20033;-76
2021/09/20 01:13:54;;;;;;;5.60;4.80;;;;;;;13.19;71.89;101843.19;4990113;28;20091;-77
2021/09/20 01:16:20;;;;;;;5.35;4.88;;;;;;;13.05;72.37;101841.88;4990096;28;20048;-76
2021/09/20 01:18:45;;;;;;;7.00;5.28;;;;;;;13.02;72.57;101838.50;4990023;28;20037;-76
2021/09/20 01:21:13;;;;;;;6.20;4.70;;;;;;;13.16;71.98;101838.88;5020989;28;20037;-76
2021/09/20 01:23:39;;;;;;;5.80;5.20;;;;;;;13.01;72.28;101849.94;5001053;28;20017;-77
2021/09/20 01:26:04;;;;;;;6.30;5.70;;;;;;;12.98;72.27;101837.75;4990986;28;20376;-77
2021/09/20 01:28:30;;;;;;;7.63;5.88;;;;;;;12.98;72.45;101831.63;4997821;28;20040;-76
2021/09/20 01:30:55;;;;;;;7.75;5.28;;;;;;;13.02;72.01;101834.13;5008764;28;20037;-76
2021/09/20 01:33:20;;;;;;;5.78;5.28;;;;;;;13.04;71.39;101836.66;5037779;28;20034;-76
2021/09/20 01:35:46;;;;;;;7.55;5.78;;;;;;;12.86;72.23;101835.53;4998451;28;20021;-77
2021/09/20 01:38:11;;;;;;;6.07;5.57;;;;;;;12.93;71.95;101837.03;4984810;28;20050;-77
2021/09/20 01:40:37;;;;;;;6.55;5.97;;;;;;;12.89;72.24;101837.22;5043962;28;20040;-77
2021/09/20 01:43:02;;;;;;;6.28;5.68;;;;;;;12.83;72.11;101838.28;5006298;28;20033;-77
2021/09/20 01:45:28;;;;;;;6.63;6.03;;;;;;;12.76;72.63;101839.41;4985670;28;20137;-77
2021/09/20 01:47:53;;;;;;;5.97;5.47;;;;;;;12.85;71.76;101839.09;5015299;28;20046;-77
2021/09/20 01:50:19;;;;;;;5.50;5.00;;;;;;;12.71;71.93;101836.91;5025885;28;20034;-77
2021/09/20 01:52:44;;;;;;;6.95;5.30;;;;;;;12.72;71.87;101837.78;4990504;28;20053;-77
2021/09/20 01:55:10;;;;;;;5.40;4.90;;;;;;;12.66;72.13;101837.09;4978159;28;20029;-77
2021/09/20 01:57:36;;;;;;;5.45;5.05;;;;;;;12.75;71.51;101838.56;4993214;28;20237;-77
2021/09/20 02:00:03;;;;;;;5.90;5.00;;;;;;;12.85;71.71;101836.47;4994797;28;20021;-77
2021/09/20 02:02:28;;;;;;;5.00;4.60;;;;;;;12.74;71.73;101835.97;4998132;28;20056;-77
2021/09/20 02:04:54;;;;;;;5.47;4.97;;;;;;;12.70;71.97;101835.22;5018905;28;20048;-77
2021/09/20 02:07:19;;;;;;;6.22;5.07;;;;;;;12.62;71.31;101839.84;5014858;28;20416;-76
2021/09/20 02:09:44;;;;;;;6.45;4.53;;;;;;;12.68;71.07;101848.41;5012818;28;20033;-77
2021/09/20 02:12:10;;;;;;;4.90;4.50;;;;;;;12.62;71.34;101850.34;5009950;28;20050;-77
2021/09/20 02:14:35;;;;;;;5.07;4.55;;;;;;;12.61;71.34;101848.66;5010232;28;20037;-76
2021/09/20 02:17:01;;;;;;;7.40;4.72;;;;;;;12.62;71.55;101859.09;5009920;28;20033;-76
2021/09/20 02:19:26;;;;;;;6.43;5.35;;;;;;;12.69;71.11;101857.13;4993487;28;20037;-76
2021/09/20 02:21:52;;;;;;;5.13;4.63;;;;;;;12.84;71.40;101855.75;4978327;28;20322;-77
2021/09/20 02:24:17;;;;;;;5.25;4.85;;;;;;;12.63;71.00;101863.44;4994587;28;20087;-79
2021/09/20 02:26:43;;;;;;;5.07;4.65;;;;;;;12.78;70.46;101858.59;4993950;28;20044;-76
2021/09/20 02:29:08;;;;;;;5.10;4.70;;;;;;;12.71;70.84;101855.31;4996997;28;20424;-77
2021/09/20 02:31:33;;;;;;;6.25;5.03;;;;;;;12.64;70.59;101862.56;4994067;28;20025;-79
2021/09/20 02:33:59;;;;;;;5.68;5.15;;;;;;;12.75;70.21;101870.09;5013984;28;20236;-77
2021/09/20 02:36:24;;;;;;;5.38;4.85;;;;;;;12.80;69.92;101862.88;5008375;28;20045;-77
2021/09/20 02:38:50;;;;;;;10.27;5.85;;;;;;;12.74;69.71;101876.25;5011649;28;20053;-76
2021/09/20 02:41:15;;;;;;;4.90;4.60;;;;;;;12.76;69.50;101869.16;4993053;28;20040;-77
2021/09/20 02:43:41;;;;;;;9.90;5.30;;;;;;;12.66;69.68;101878.25;5008539;28;20052;-77
2021/09/20 02:46:06;;;;;;;5.00;4.65;;;;;;;12.65;69.39;101871.28;5019633;28;20071;-77
2021/09/20 02:48:32;;;;;;;5.40;5.00;;;;;;;12.71;69.60;101872.84;4994135;28;20038;-75
2021/09/20 02:50:57;;;;;;;7.70;4.72;;;;;;;12.70;69.00;101874.63;4991852;28;20030;-76
2021/09/20 02:53:22;;;;;;;5.38;4.93;;;;;;;12.71;69.68;101876.34;4992582;28;20030;-76
2021/09/20 02:55:48;;;;;;;5.80;5.40;;;;;;;12.55;69.05;101881.25;5005948;28;20059;-76
2021/09/20 02:58:13;;;;;;;5.90;5.40;;;;;;;12.73;69.04;101879.78;5000767;28;20065;-76
2021/09/20 03:00:39;;;;;;;5.60;5.10;;;;;;;12.65;69.13;101890.53;5009212;28;20028;-77
2021/09/20 03:03:06;;;;;;;6.55;5.00;;;;;;;12.76;68.94;101884.94;5001595;28;20063;-76
2021/09/20 03:05:31;;;;;;;5.60;5.10;;;;;;;12.77;68.85;101891.03;5003849;28;20029;-76
2021/09/20 03:07:57;;;;;;;6.57;5.80;;;;;;;12.75;69.07;101898.13;5003342;28;20091;-76
2021/09/20 03:10:22;;;;;;;5.57;5.10;;;;;;;12.73;68.73;101905.19;4986223;28;20083;-76
2021/09/20 03:12:47;;;;;;;5.78;5.28;;;;;;;12.85;68.93;101907.44;5010249;28;20025;-79
2021/09/20 03:15:13;;;;;;;6.32;5.55;;;;;;;12.73;69.26;101908.69;4998822;28;20044;-76
2021/09/20 03:17:38;;;;;;;8.10;6.22;;;;;;;12.76;69.26;101908.59;4999300;28;20041;-76
2021/09/20 03:20:04;;;;;;;6.38;5.80;;;;;;;12.84;69.61;101909.22;5008736;28;20417;-76
2021/09/20 03:22:30;;;;;;;6.30;5.70;;;;;;;12.62;70.54;101908.19;4979052;28;20033;-76
2021/09/20 03:24:55;;;;;;;8.07;6.22;;;;;;;12.73;71.34;101910.47;5013047;28;20097;-76
2021/09/20 03:27:21;;;;;;;8.13;6.25;;;;;;;12.59;71.84;101903.03;5025113;28;20053;-75
2021/09/20 03:29:46;;;;;;;6.70;5.88;;;;;;;12.66;70.73;101907.16;5012414;28;20039;-75
2021/09/20 03:32:12;;;;;;;6.97;5.65;;;;;;;12.38;71.74;101913.31;5024202;28;20255;-76
2021/09/20 03:34:37;;;;;;;7.75;6.18;;;;;;;12.40;72.70;101910.63;4994256;28;20036;-76
2021/09/20 03:37:03;;;;;;;7.05;6.38;;;;;;;12.28;73.05;101907.47;5008163;28;20364;-76
2021/09/20 03:39:28;;;;;;;7.15;6.50;;;;;;;12.32;73.23;101913.50;4994880;28;20048;-76
2021/09/20 03:41:54;;;;;;;6.47;5.93;;;;;;;12.34;72.95;101910.84;4991973;28;20379;-75
2021/09/20 03:44:19;;;;;;;7.60;6.97;;;;;;;12.20;71.67;101906.00;5021741;28;20075;-76
2021/09/20 03:46:45;;;;;;;8.77;6.93;;;;;;;12.20;72.04;101908.63;5010103;28;20042;-76
2021/09/20 03:49:10;;;;;;;10.20;7.40;;;;;;;12.12;71.64;101905.38;4992513;28;20123;-76
2021/09/20 03:51:36;;;;;;;9.35;7.13;;;;;;;12.13;71.58;101913.19;5008191;28;20283;-75
2021/09/20 03:54:01;;;;;;;9.43;7.45;;;;;;;12.14;71.06;101917.53;4994764;28;20017;-78
2021/09/20 03:56:26;;;;;;;7.75;7.00;;;;;;;12.08;70.68;101915.97;4997668;28;20030;-76
2021/09/20 03:58:54;;;;;;;16.15;7.00;;;;;;;12.20;70.76;101917.34;5016053;28;20037;-76
2021/09/20 04:01:19;;;;;;;7.28;6.65;;;;;;;12.35;69.91;101934.44;5016151;28;20337;-76
2021/09/20 04:03:45;;;;;;;10.23;7.72;;;;;;;12.20;70.09;101927.00;4995880;28;20036;-76
2021/09/20 04:06:10;;;;;;;9.32;7.47;;;;;;;12.35;70.36;101936.19;5025876;28;20037;-77
2021/09/20 04:08:36;;;;;;;7.20;6.65;;;;;;;12.12;70.43;101934.25;5004115;28;20036;-76
2021/09/20 04:11:01;;;;;;;8.63;7.03;;;;;;;12.23;69.96;101933.03;5017944;28;20080;-76
2021/09/20 04:13:26;;;;;;;7.57;6.90;;;;;;;12.10;69.48;101939.56;5007728;28;20046;-77
2021/09/20 04:15:55;;;;;;;8.60;6.45;;;;;;;12.33;69.78;101949.34;5011260;28;20321;-77
2021/09/20 04:18:21;;;;;;;7.43;5.82;;;;;;;12.20;69.10;101953.25;5007780;28;20321;-76
2021/09/20 04:20:48;;;;;;;7.80;7.05;;;;;;;12.05;68.91;101950.19;4978016;28;20048;-76
2021/09/20 04:23:14;;;;;;;7.00;6.30;;;;;;;12.07;69.62;101956.25;5007909;28;20037;-76
2021/09/20 04:25:39;;;;;;;8.02;7.07;;;;;;;12.04;69.15;101956.34;5016304;28;20044;-77
2021/09/20 04:28:05;;;;;;;7.68;6.82;;;;;;;12.01;68.23;101958.22;5007908;28;20232;-76
2021/09/20 04:30:30;;;;;;;9.82;6.68;;;;;;;12.03;68.99;101951.13;5041620;28;20491;-76
2021/09/20 04:32:56;;;;;;;8.70;6.30;;;;;;;11.97;68.84;101960.06;4975697;28;20033;-76
2021/09/20 04:35:21;;;;;;;8.80;7.20;;;;;;;12.03;68.41;101961.63;5007341;28;20112;-76
2021/09/20 04:37:46;;;;;;;7.13;6.18;;;;;;;12.04;68.66;101958.97;5007363;28;20033;-76
2021/09/20 04:40:14;;;;;;;7.28;6.63;;;;;;;12.09;68.64;101962.31;5025482;28;20022;-77
2021/09/20 04:42:40;;;;;;;7.75;7.05;;;;;;;12.15;69.12;101969.16;5007819;28;20028;-76
2021/09/20 04:45:06;;;;;;;6.93;6.22;;;;;;;12.01;69.16;101971.34;4990622;28;20097;-76
2021/09/20 04:47:31;;;;;;;6.95;5.57;;;;;;;12.12;69.69;101968.41;5013358;28;20051;-76
2021/09/20 04:49:56;;;;;;;10.30;6.65;;;;;;;12.04;70.23;101979.97;5010298;28;20045;-77
2021/09/20 04:52:22;;;;;;;7.85;6.25;;;;;;;12.23;69.73;101974.19;4990364;28;20036;-76
2021/09/20 04:54:48;;;;;;;7.47;6.80;;;;;;;11.94;70.50;101981.13;4991621;28;20030;-77
2021/09/20 04:57:15;;;;;;;7.20;6.60;;;;;;;12.04;70.07;101979.09;5029697;28;20056;-78
2021/09/20 04:59:40;;;;;;;11.63;6.93;;;;;;;11.98;70.51;101977.50;5018502;28;20324;-76
2021/09/20 05:02:06;;;;;;;7.10;6.55;;;;;;;11.88;70.01;101986.53;4990483;28;20037;-77
2021/09/20 05:04:31;;;;;;;7.78;6.70;;;;;;;11.88;70.23;101987.38;5007682;28;20580;-76
2021/09/20 05:06:56;;;;;;;10.23;7.28;;;;;;;11.91;69.37;101996.97;5022451;28;20340;-76
2021/09/20 05:09:22;;;;;;;7.03;6.53;;;;;;;11.80;69.98;101988.50;5010696;28;20028;-76
2021/09/20 05:11:47;;;;;;;6.97;6.38;;;;;;;11.83;69.82;101999.78;5043416;28;20055;-76
2021/09/20 05:14:13;;;;;;;8.15;6.43;;;;;;;11.84;70.48;102001.50;4993393;28;20029;-76
2021/09/20 05:16:39;;;;;;;8.55;7.40;;;;;;;11.71;70.39;102003.59;5026787;28;20071;-76
2021/09/20 05:19:04;;;;;;;8.57;6.93;;;;;;;11.82;70.14;102007.69;5008560;28;20093;-76
2021/09/20 05:21:29;;;;;;;8.27;7.00;;;;;;;11.85;69.87;102008.47;5036437;28;20046;-77
2021/09/20 05:23:55;;;;;;;6.85;6.25;;;;;;;11.75;70.24;102007.00;4986863;28;20392;-77
2021/09/20 05:26:20;;;;;;;7.78;6.82;;;;;;;11.96;69.62;102005.56;5018245;28;20042;-76
2021/09/20 05:28:46;;;;;;;10.05;6.88;;;;;;;12.06;69.42;102014.03;5031602;28;20021;-77
2021/09/20 05:31:11;;;;;;;6.82;6.10;;;;;;;12.02;69.44;102018.53;4990445;28;20027;-77
2021/09/20 05:33:37;;;;;;;6.82;6.13;;;;;;;11.81;69.11;102025.22;5033590;28;20033;-76
2021/09/20 05:36:03;;;;;;;7.60;6.88;;;;;;;11.76;68.39;102032.34;5032509;28;20033;-76
2021/09/20 05:38:30;;;;;;;8.80;6.72;;;;;;;11.88;68.00;102028.53;5032568;28;20061;-78
2021/09/20 05:40:55;;;;;;;6.90;6.20;;;;;;;11.88;68.69;102033.78;5029900;28;20037;-77
2021/09/20 05:43:20;;;;;;;7.93;6.88;;;;;;;11.80;68.57;102030.50;4999342;28;20044;-77
2021/09/20 05:45:46;;;;;;;7.07;6.47;;;;;;;11.85;68.82;102031.22;5020916;28;20021;-76
2021/09/20 05:48:11;;;;;;;6.53;5.97;;;;;;;11.98;68.31;102034.41;5022916;28;20304;-76
2021/09/20 05:50:37;;;;;;;7.03;6.35;;;;;;;11.96;68.65;102039.69;5009876;28;20363;-76
2021/09/20 05:53:02;;;;;;;8.10;7.30;;;;;;;11.88;68.26;102036.41;5011321;28;20131;-76
2021/09/20 05:55:28;;;;;;;7.80;7.10;;;;;;;11.91;68.50;102044.22;5017792;28;20321;-76
2021/09/20 05:57:53;;;;;;;7.32;6.07;;;;;;;12.01;68.40;102044.84;5015844;28;20041;-76
2021/09/20 06:00:19;;;;;;;8.02;6.50;;;;;;;11.96;67.79;102046.72;5006968;28;20025;-76
2021/09/20 06:02:44;;;;;;;7.10;6.40;;;;;;;11.90;67.71;102042.50;4993623;28;20072;-77
2021/09/20 06:05:12;;;;;;;6.43;5.43;;;;;;;11.91;67.63;102049.47;5005270;28;20038;-77
2021/09/20 06:07:38;;;;;;;6.07;5.47;;;;;;;11.98;67.77;102045.78;5024746;28;20080;-77
2021/09/20 06:10:04;;;;;;;6.90;6.30;;;;;;;11.91;67.49;102054.72;5008148;28;20658;-76
2021/09/20 06:12:29;;;;;;;6.28;5.68;;;;;;;11.99;66.54;102057.13;4993155;28;20033;-77
2021/09/20 06:14:55;;;;;;;7.25;5.57;;;;;;;11.98;66.38;102063.28;5005627;28;20121;-77
2021/09/20 06:17:20;;;;;;;10.30;6.38;;;;;;;11.94;67.46;102054.63;5006188;28;20064;-77
2021/09/20 06:19:47;;;;;;;8.35;5.70;;;;;;;12.12;67.08;102060.31;4998522;28;20037;-76
2021/09/20 06:22:13;;;;;;;6.15;5.47;;;;;;;12.32;67.29;102062.38;5025812;28;20033;-77
2021/09/20 06:24:38;;;;;;;6.28;5.68;;;;;;;12.05;67.50;102063.09;4994249;28;20324;-76
2021/09/20 06:27:04;;;;;;;6.30;5.80;;;;;;;12.01;65.93;102066.69;4984882;28;20029;-77
2021/09/20 06:29:29;;;;;;;11.13;6.50;;;;;;;12.14;65.97;102071.63;5033367;28;20056;-76
2021/09/20 06:31:57;;;;;;;11.07;7.50;;;;;;;12.01;65.74;102069.31;5015883;28;20051;-76
2021/09/20 06:34:22;;;;;;;7.20;6.60;;;;;;;11.95;65.77;102081.75;5006323;28;20037;-76
2021/09/20 06:36:48;;;;;;;6.85;6.15;;;;;;;12.00;65.45;102078.09;5012926;28;20078;-77
2021/09/20 06:39:13;;;;;;;7.45;6.50;;;;;;;12.05;65.74;102080.59;4991413;28;20195;-76
2021/09/20 06:41:39;;;;;;;9.57;7.50;;;;;;;11.98;65.71;102090.41;5008148;28;20249;-76
2021/09/20 06:44:04;;;;;;;6.78;6.22;;;;;;;12.20;65.53;102079.31;4987885;28;20029;-77
2021/09/20 06:46:30;;;;;;;7.75;7.05;;;;;;;12.12;65.69;102076.06;5005010;28;20152;-76
2021/09/20 06:48:59;;;;;;;8.25;6.65;;;;;;;12.32;65.13;102072.88;4992173;28;20388;-77
2021/09/20 06:51:25;;;;;;;7.55;6.85;;;;;;;12.26;64.80;102077.41;4994787;28;20042;-76
2021/09/20 06:53:50;;;;;;;7.22;5.75;;;;;;;12.90;63.14;102075.53;4991623;28;20036;-77
2021/09/20 06:56:17;;;;;;;12.88;6.65;;;;;;;12.42;64.14;102077.81;5015020;28;20086;-77
2021/09/20 06:58:42;;;;;;;9.75;8.18;;;;;;;12.27;64.15;102073.84;4992155;28;20036;-76
2021/09/20 07:01:08;;;;;;;10.45;8.10;;;;;;;12.21;65.00;102078.44;4992486;28;20037;-76
2021/09/20 07:03:33;;;;;;;8.35;7.45;;;;;;;12.33;64.24;102071.97;5021713;28;20030;-77
2021/09/20 07:05:59;;;;;;;8.80;7.97;;;;;;;12.37;64.07;102071.84;5000217;28;20080;-76
2021/09/20 07:08:24;;;;;;;8.10;5.80;;;;;;;14.00;66.27;102069.28;5013052;28;20040;-78
2021/09/20 07:10:49;;;;;;;7.50;5.35;;;;;;;15.55;66.36;102074.78;4991346;28;20056;-76
2021/09/20 07:13:15;;;;;;;5.70;5.22;;;;;;;15.85;65.92;102077.94;5029045;28;20032;-76
2021/09/20 07:15:40;;;;;;;11.93;5.72;;;;;;;16.04;64.81;102079.78;5003403;28;20085;-76
2021/09/20 07:18:06;;;;;;;5.97;5.22;;;;;;;16.49;62.92;102090.06;5009674;28;20051;-76
2021/09/20 07:20:32;;;;;;;8.55;4.35;;;;;;;16.78;60.96;102087.03;4990360;28;20612;-76
2021/09/20 07:22:57;;;;;;;5.15;4.72;;;;;;;17.01;61.76;102086.81;4985328;28;20048;-75
2021/09/20 07:25:23;;;;;;;8.13;4.90;;;;;;;17.27;60.51;102087.34;5046976;28;20427;-75
2021/09/20 07:27:48;;;;;;;7.72;5.28;;;;;;;17.39;59.85;102086.75;4997133;28;20117;-76
2021/09/20 07:30:19;;;;;;;5.82;5.10;;;;;;;17.57;59.52;102094.69;5012168;28;20038;-76
2021/09/20 07:32:48;;;;;;;4.18;3.78;;;;;;;17.67;59.28;102095.94;5015907;28;20433;-76
2021/09/20 07:35:16;;;;;;;5.30;4.80;;;;;;;17.67;58.54;102103.91;5028958;28;20038;-76
2021/09/20 07:37:52;;;;;;;6.50;4.85;;;;;;;17.83;58.43;102106.63;5028076;28;20386;-76
2021/09/20 07:40:18;;;;;;;8.98;4.85;;;;;;;17.86;57.91;102110.94;5007089;28;20333;-76
2021/09/20 07:42:44;;;;;;;7.65;4.88;;;;;;;18.12;57.34;102113.09;5008223;28;20300;-76
2021/09/20 07:45:10;;;;;;;8.13;5.00;;;;;;;18.25;58.08;102109.81;5024451;28;20407;-76
2021/09/20 07:47:35;;;;;;;5.05;4.55;;;;;;;18.36;56.42;102110.94;5042257;28;20041;-77
2021/09/20 07:50:01;;;;;;;5.70;5.05;;;;;;;18.62;56.09;102113.97;4991972;28;20029;-76
2021/09/20 07:52:28;;;;;;;8.98;5.40;;;;;;;18.83;55.61;102119.06;4994475;28;20052;-77
2021/09/20 07:54:53;;;;;;;5.97;5.13;;;;;;;19.02;54.67;102129.53;4988159;28;20044;-78
2021/09/20 07:57:18;;;;;;;7.07;5.13;;;;;;;19.11;54.08;102132.53;5013319;28;20021;-77
2021/09/20 07:59:44;;;;;;;5.20;4.78;;;;;;;19.28;53.53;102134.25;5009007;28;20037;-78
2021/09/20 08:02:10;;;;;;;5.07;4.63;;;;;;;19.52;52.72;102136.44;5009230;28;20403;-76
2021/09/20 08:04:35;;;;;;;6.03;4.72;;;;;;;19.73;52.91;102135.19;5032467;28;20036;-76
2021/09/20 08:07:01;;;;;;;6.60;4.63;;;;;;;20.02;52.38;102137.94;5003129;28;20116;-76
2021/09/20 08:09:26;;;;;;;5.15;4.65;;;;;;;20.18;51.60;102137.00;5006835;28;20289;-76
2021/09/20 08:11:51;;;;;;;5.15;4.65;;;;;;;20.47;50.83;102141.38;5017318;28;20033;-77
2021/09/20 08:14:17;;;;;;;5.55;4.35;;;;;;;20.73;50.61;102138.94;5010804;28;20378;-75
2021/09/20 08:16:42;;;;;;;10.18;4.25;;;;;;;21.09;50.33;102141.03;5013232;28;20045;-76
2021/09/20 08:19:08;;;;;;;4.88;4.30;;;;;;;21.29;48.75;102136.25;5019021;28;20043;-76
2021/09/20 08:21:33;;;;;;;4.47;4.07;;;;;;;21.50;48.46;102146.47;5013695;28;20025;-76
2021/09/20 08:23:59;;;;;;;4.28;3.97;;;;;;;21.89;47.86;102145.59;5028123;28;20044;-76
2021/09/20 08:26:24;;;;;;;5.90;4.72;;;;;;;22.21;46.96;102145.19;5018371;28;20041;-76
2021/09/20 08:28:50;;;;;;;4.45;4.15;;;;;;;22.29;46.92;102153.56;5020442;28;20025;-77
2021/09/20 08:31:15;;;;;;;6.43;4.10;;;;;;;22.58;46.43;102151.50;5021030;28;20040;-77
2021/09/20 08:33:40;;;;;;;5.57;5.07;;;;;;;22.79;45.37;102153.59;4995972;28;20225;-77
2021/09/20 08:36:07;;;;;;;5.18;4.53;;;;;;;23.06;45.52;102160.63;5015283;28;20026;-76
2021/09/20 08:38:32;;;;;;;7.10;4.30;;;;;;;23.43;44.20;102164.13;5002376;28;20053;-76
2021/09/20 08:40:57;;;;;;;6.03;4.10;;;;;;;23.55;44.16;102157.81;5024479;28;20144;-77
2021/09/20 08:43:23;;;;;;;5.30;4.85;;;;;;;23.77;44.16;102165.06;5016347;28;20038;-77
2021/09/20 08:45:48;;;;;;;5.45;4.43;;;;;;;23.92;43.60;102171.13;5005431;28;20045;-77
2021/09/20 08:48:14;;;;;;;9.13;4.97;;;;;;;24.08;43.51;102173.47;4979271;28;20088;-76
2021/09/20 08:50:39;;;;;;;4.72;4.43;;;;;;;24.28;43.00;102171.91;5009776;28;20025;-76
2021/09/20 08:53:08;;;;;;;8.40;5.57;;;;;;;24.71;41.98;102173.06;5034177;28;20052;-76
2021/09/20 08:55:33;;;;;;;;;;;;;;;24.79;41.34;102177.81;5015155;28;20060;-77
2021/09/20 08:57:59;;;;;;;5.43;5.03;;;;;;;25.08;41.52;102181.66;5033293;28;19948;-77
2021/09/20 09:00:24;;;;;;;16.05;6.00;;;;;;;25.44;40.40;102176.13;5000920;28;20049;-77
2021/09/20 09:02:50;;;;;;;9.32;6.00;;;;;;;25.52;40.02;102176.31;5019827;28;20040;-77
2021/09/20 09:05:22;;;;;;;7.22;5.63;;;;;;;25.55;40.23;102177.91;5013657;28;20108;-77
2021/09/20 09:07:55;;;;;;;13.27;6.07;;;;;;;25.65;39.69;102182.38;5023285;28;20267;-78
2021/09/20 09:10:25;;;;;;;16.08;5.65;;;;;;;25.78;39.41;102178.66;5022292;28;20042;-78
2021/09/20 09:12:51;;;;;;;12.35;5.82;;;;;;;26.21;38.69;102181.25;4993584;28;20233;-77
2021/09/20 09:15:17;;;;;;;5.88;5.38;;;;;;;26.05;39.55;102186.22;4990524;28;20030;-77
2021/09/20 09:17:44;;;;;;;5.95;5.38;;;;;;;25.92;39.45;102180.16;5000076;28;20030;-75
2021/09/20 09:20:18;;;;;;;6.53;5.73;;;;;;;26.11;38.74;102183.00;4992282;28;20225;-77
2021/09/20 09:23:07;;;;;;;5.93;5.20;;;;;;;26.06;39.07;102185.22;5000698;28;20056;-77
2021/09/20 09:25:46;;;;;;;19.17;6.47;;;;;;;26.37;37.69;102183.44;5007386;28;20047;-75
2021/09/20 09:28:25;;;;;;;9.95;5.80;;;;;;;26.41;38.62;102184.88;4996971;28;20128;-77
2021/09/20 09:30:52;;;;;;;6.15;5.60;;;;;;;26.76;38.04;102189.00;4996293;28;20218;-77
2021/09/20 09:33:19;;;;;;;14.80;5.50;;;;;;;26.91;37.68;102184.09;4999816;28;20351;-78
2021/09/20 09:35:49;;;;;;;12.95;6.68;;;;;;;26.36;38.55;102187.13;5006949;28;20061;-78
2021/09/20 09:38:15;;;;;;;7.20;5.93;;;;;;;26.24;38.95;102189.00;4975370;28;20269;-76
2021/09/20 09:40:52;;;;;;;10.00;5.85;;;;;;;26.43;37.50;102195.47;5016671;28;20046;-77
2021/09/20 09:43:30;;;;;;;8.50;5.72;;;;;;;26.02;38.71;102199.91;4998813;28;20033;-77
2021/09/20 09:45:57;;;;;;;11.60;6.18;;;;;;;26.50;37.81;102188.56;5025150;28;20061;-77
2021/09/20 09:48:27;;;;;;;11.00;5.97;;;;;;;26.32;38.12;102195.56;4988731;28;20068;-77
2021/09/20 09:50:54;;;;;;;10.48;6.00;;;;;;;26.78;37.42;102196.94;4997880;28;20102;-77
2021/09/20 09:53:34;;;;;;;17.48;6.20;;;;;;;27.35;36.05;102195.41;5001167;28;20022;-78
2021/09/20 09:56:23;;;;;;;9.98;5.90;;;;;;;27.10;37.01;102201.28;5003917;28;20040;-77
2021/09/20 09:59:04;;;;;;;5.38;4.90;;;;;;;27.26;36.15;102198.94;5011943;28;20062;-76
2021/09/20 10:01:30;;;;;;;7.25;5.88;;;;;;;27.37;36.73;102206.03;4995748;28;20093;-77
2021/09/20 10:04:09;;;;;;;7.57;6.22;;;;;;;27.73;35.18;102201.78;5011342;28;20084;-77
2021/09/20 10:06:41;;;;;;;6.35;5.53;;;;;;;27.74;35.29;102206.19;5014199;28;20037;-77
2021/09/20 10:09:13;;;;;;;8.93;6.38;;;;;;;27.85;35.70;102201.63;5020062;28;20038;-77
2021/09/20 10:11:42;;;;;;;19.75;6.85;;;;;;;27.94;35.22;102201.66;4985162;28;20034;-77
2021/09/20 10:14:08;;;;;;;11.93;6.05;;;;;;;28.05;35.10;102202.47;5006478;28;20018;-78
2021/09/20 10:16:34;;;;;;;9.68;6.22;;;;;;;28.13;35.40;102206.16;5018210;28;20076;-77
2021/09/20 10:19:00;;;;;;;8.05;6.47;;;;;;;28.19;35.29;102206.56;5004170;28;20036;-77
2021/09/20 10:21:25;;;;;;;6.60;6.00;;;;;;;28.26;34.67;102216.63;4991720;28;20038;-77
2021/09/20 10:23:54;;;;;;;8.63;7.03;;;;;;;27.89;35.49;102209.28;4982059;28;20377;-76
2021/09/20 10:26:20;;;;;;;10.27;6.53;;;;;;;27.98;35.67;102212.13;4996220;28;20070;-77
2021/09/20 10:28:52;;;;;;;6.05;5.53;;;;;;;27.79;35.82;102207.59;5021513;28;20371;-77
2021/09/20 10:31:18;;;;;;;8.10;6.40;;;;;;;27.64;35.88;102218.78;4990815;28;20030;-77
2021/09/20 10:33:43;;;;;;;11.77;5.85;;;;;;;27.52;36.27;102212.72;5019998;28;20343;-78
2021/09/20 10:36:08;;;;;;;7.72;5.80;;;;;;;27.63;36.18;102211.69;5016663;28;20037;-78
2021/09/20 10:38:34;;;;;;;9.13;6.30;;;;;;;27.42;35.77;102211.00;5015032;28;20083;-79
2021/09/20 10:41:12;;;;;;;6.65;5.50;;;;;;;26.48;36.73;102206.66;4997522;28;20123;-80
2021/09/20 10:43:40;;;;;;;6.50;5.82;;;;;;;26.93;35.44;102218.91;5005900;28;20026;-77
2021/09/20 10:46:20;;;;;;;9.87;5.30;;;;;;;27.22;35.19;102212.78;4986014;28;20140;-78
2021/09/20 10:48:58;;;;;;;9.23;6.40;;;;;;;27.36;34.88;102218.63;4984012;28;20054;-78
2021/09/20 10:51:26;;;;;;;6.28;5.70;;;;;;;27.17;35.37;102208.63;4987497;28;20018;-77
2021/09/20 10:54:16;;;;;;;15.82;6.40;;;;;;;27.02;35.50;102212.72;5001472;28;20037;-77
2021/09/20 10:56:42;;;;;;;6.28;5.68;;;;;;;26.85;36.29;102216.03;4994119;28;20018;-76
2021/09/20 10:59:10;;;;;;;6.40;5.10;;;;;;;26.75;36.46;102207.97;5012543;28;20049;-77
2021/09/20 11:01:39;;;;;;;16.75;6.65;;;;;;;26.49;37.10;102211.06;5028268;28;20033;-77
2021/09/20 11:04:16;;;;;;;19.05;5.80;;;;;;;25.63;38.38;102210.28;4993724;28;20054;-79
2021/09/20 11:06:43;;;;;;;8.73;5.93;;;;;;;24.58;41.11;102218.72;4982820;28;20065;-78
2021/09/20 11:09:08;;;;;;;6.00;5.50;;;;;;;23.88;43.04;102214.28;5006931;28;20421;-77
2021/09/20 11:11:43;;;;;;;5.30;4.80;;;;;;;23.81;42.71;102207.69;5012105;28;20034;-75
2021/09/20 11:14:22;;;;;;;10.85;4.82;;;;;;;23.72;43.68;102214.53;5016000;28;20333;-79
2021/09/20 11:17:01;;;;;;;6.55;4.88;;;;;;;23.68;43.02;102215.75;5004941;28;20144;-76
2021/09/20 11:19:33;;;;;;;5.90;4.35;;;;;;;23.62;44.35;102218.88;5012908;28;20034;-77
2021/09/20 11:22:11;;;;;;;5.65;4.57;;;;;;;23.55;44.28;102219.31;5024345;28;20337;-77